createdAt,value
2022-08-25T00:00:45.941Z,0.00
2022-08-25T00:01:45.894Z,0.00
2022-08-25T00:02:55.574Z,0.00
2022-08-25T00:03:45.911Z,0.00
2022-08-25T00:04:45.848Z,0.00
2022-08-25T00:05:45.886Z,0.00
2022-08-25T00:06:45.825Z,0.00
2022-08-25T00:07:45.835Z,0.00
2022-08-25T00:08:45.824Z,0.00
2022-08-25T00:09:45.806Z,0.00
2022-08-25T00:10:45.781Z,0.00
2022-08-25T00:11:45.773Z,0.00
2022-08-25T00:12:45.753Z,0.00
2022-08-25T00:13:45.740Z,0.00
2022-08-25T00:14:45.766Z,0.00
2022-08-25T00:15:45.746Z,0.00
2022-08-25T00:16:45.700Z,0.00
2022-08-25T00:17:45.671Z,0.00
2022-08-25T00:18:45.654Z,0.00
2022-08-25T00:19:45.640Z,0.00
2022-08-25T00:20:48.827Z,0.00
2022-08-25T00:21:45.639Z,0.00
2022-08-25T00:22:45.642Z,0.00
2022-08-25T00:23:45.620Z,0.00
2022-08-25T00:24:45.617Z,0.00
2022-08-25T00:25:45.590Z,0.00
2022-08-25T00:26:45.580Z,0.00
2022-08-25T00:27:45.850Z,0.00
2022-08-25T00:28:45.551Z,0.00
2022-08-25T00:29:45.500Z,0.00
2022-08-25T00:30:45.561Z,0.00
2022-08-25T00:31:45.561Z,0.00
2022-08-25T00:32:50.503Z,0.00
2022-08-25T00:33:45.453Z,0.00
2022-08-25T00:34:45.466Z,0.00
2022-08-25T00:35:45.439Z,0.00
2022-08-25T00:36:45.454Z,0.00
2022-08-25T00:37:45.412Z,0.00
2022-08-25T00:38:45.430Z,0.00
2022-08-25T00:39:45.433Z,0.00
2022-08-25T00:40:45.388Z,0.00
2022-08-25T00:41:45.359Z,0.00
2022-08-25T00:42:45.363Z,0.00
2022-08-25T00:43:45.350Z,0.00
2022-08-25T00:44:45.458Z,0.00
2022-08-25T00:45:45.295Z,0.00
2022-08-25T00:46:45.278Z,0.00
2022-08-25T00:47:45.268Z,0.00
2022-08-25T00:48:45.308Z,0.00
2022-08-25T00:49:45.233Z,0.00
2022-08-25T00:50:45.247Z,0.00
2022-08-25T00:51:45.250Z,0.00
2022-08-25T00:52:45.260Z,0.00
2022-08-25T00:53:45.195Z,0.00
2022-08-25T00:54:45.193Z,0.00
2022-08-25T00:55:45.182Z,0.00
2022-08-25T00:56:45.168Z,0.00
2022-08-25T00:57:45.159Z,0.00
2022-08-25T00:58:45.133Z,0.00
2022-08-25T00:59:45.151Z,0.00
2022-08-25T01:00:45.099Z,0.00
2022-08-25T01:01:45.125Z,0.00
2022-08-25T01:02:45.228Z,0.00
2022-08-25T01:03:45.059Z,0.00
2022-08-25T01:04:48.841Z,0.00
2022-08-25T01:05:45.058Z,0.00
2022-08-25T01:06:45.027Z,0.00
2022-08-25T01:07:45.039Z,0.00
2022-08-25T01:08:44.996Z,0.00
2022-08-25T01:09:44.993Z,0.00
2022-08-25T01:10:44.984Z,0.00
2022-08-25T01:11:44.996Z,0.00
2022-08-25T01:12:44.969Z,0.00
2022-08-25T01:13:44.939Z,0.00
2022-08-25T01:14:44.914Z,0.00
2022-08-25T01:15:44.969Z,0.00
2022-08-25T01:16:44.890Z,0.00
2022-08-25T01:17:44.874Z,0.00
2022-08-25T01:18:44.859Z,0.00
2022-08-25T01:19:44.848Z,0.00
2022-08-25T01:20:44.849Z,0.00
2022-08-25T01:21:44.879Z,0.00
2022-08-25T01:22:44.824Z,0.00
2022-08-25T01:23:44.794Z,0.00
2022-08-25T01:24:44.802Z,0.00
2022-08-25T01:25:44.760Z,0.00
2022-08-25T01:26:44.759Z,0.00
2022-08-25T01:27:44.818Z,0.00
2022-08-25T01:28:44.731Z,0.00
2022-08-25T01:29:44.709Z,0.00
2022-08-25T01:30:44.737Z,0.00
2022-08-25T01:31:44.686Z,0.00
2022-08-25T01:32:44.688Z,0.00
2022-08-25T01:33:44.688Z,0.00
2022-08-25T01:34:44.650Z,0.00
2022-08-25T01:35:44.624Z,0.00
2022-08-25T01:36:44.627Z,0.00
2022-08-25T01:37:44.640Z,0.00
2022-08-25T01:38:44.594Z,0.00
2022-08-25T01:39:44.683Z,0.00
2022-08-25T01:40:44.625Z,0.00
2022-08-25T01:41:44.574Z,0.00
2022-08-25T01:42:44.543Z,0.00
2022-08-25T01:43:44.601Z,0.00
2022-08-25T01:44:44.531Z,0.00
2022-08-25T01:45:44.532Z,0.00
2022-08-25T01:46:44.496Z,0.00
2022-08-25T01:47:44.473Z,0.00
2022-08-25T01:48:44.467Z,0.00
2022-08-25T01:49:44.451Z,0.00
2022-08-25T01:50:44.475Z,0.00
2022-08-25T01:51:44.415Z,0.00
2022-08-25T01:52:44.418Z,0.00
2022-08-25T01:53:44.392Z,0.00
2022-08-25T01:54:44.410Z,0.00
2022-08-25T01:55:44.365Z,0.00
2022-08-25T01:56:44.392Z,0.00
2022-08-25T01:57:44.346Z,0.00
2022-08-25T01:58:44.393Z,0.00
2022-08-25T01:59:44.318Z,0.00
2022-08-25T02:00:44.325Z,0.00
2022-08-25T02:01:44.321Z,0.00
2022-08-25T02:02:44.341Z,0.00
2022-08-25T02:03:44.286Z,0.00
2022-08-25T02:04:44.595Z,0.00
2022-08-25T02:05:44.234Z,0.00
2022-08-25T02:06:44.230Z,0.00
2022-08-25T02:07:44.244Z,0.00
2022-08-25T02:08:44.194Z,0.00
2022-08-25T02:09:44.185Z,0.00
2022-08-25T02:10:44.170Z,0.00
2022-08-25T02:11:44.159Z,0.00
2022-08-25T02:12:44.156Z,0.00
2022-08-25T02:13:44.104Z,0.00
2022-08-25T02:14:44.134Z,0.00
2022-08-25T02:15:44.110Z,0.00
2022-08-25T02:16:44.194Z,0.00
2022-08-25T02:17:44.093Z,0.00
2022-08-25T02:18:44.066Z,0.00
2022-08-25T02:19:44.065Z,0.00
2022-08-25T02:20:44.046Z,0.00
2022-08-25T02:21:44.034Z,0.00
2022-08-25T02:22:51.176Z,0.00
2022-08-25T02:23:44.000Z,0.00
2022-08-25T02:24:44.005Z,0.00
2022-08-25T02:25:43.977Z,0.00
2022-08-25T02:26:43.983Z,0.00
2022-08-25T02:27:43.930Z,0.00
2022-08-25T02:28:43.962Z,0.00
2022-08-25T02:29:43.934Z,0.00
2022-08-25T02:30:43.946Z,0.00
2022-08-25T02:31:43.891Z,0.00
2022-08-25T02:32:43.871Z,0.00
2022-08-25T02:33:43.874Z,0.00
2022-08-25T02:34:43.878Z,0.00
2022-08-25T02:35:43.831Z,0.00
2022-08-25T02:36:43.836Z,0.00
2022-08-25T02:37:43.820Z,0.00
2022-08-25T02:38:43.809Z,0.00
2022-08-25T02:39:43.794Z,0.00
2022-08-25T02:40:43.770Z,0.00
2022-08-25T02:41:43.737Z,0.00
2022-08-25T02:42:43.738Z,0.00
2022-08-25T02:43:43.744Z,0.00
2022-08-25T02:44:43.698Z,0.00
2022-08-25T02:45:43.768Z,0.00
2022-08-25T02:46:43.718Z,0.00
2022-08-25T02:47:43.672Z,0.00
2022-08-25T02:48:43.643Z,0.00
2022-08-25T02:49:43.656Z,0.00
2022-08-25T02:50:43.650Z,0.00
2022-08-25T02:51:43.616Z,0.00
2022-08-25T02:52:43.614Z,0.00
2022-08-25T02:53:43.593Z,0.00
2022-08-25T02:54:43.601Z,0.00
2022-08-25T02:55:43.560Z,0.00
2022-08-25T02:56:44.199Z,0.00
2022-08-25T02:57:43.542Z,0.00
2022-08-25T02:58:43.593Z,0.00
2022-08-25T02:59:43.507Z,0.00
2022-08-25T03:00:43.539Z,0.00
2022-08-25T03:01:43.487Z,0.00
2022-08-25T03:02:43.474Z,0.00
2022-08-25T03:03:43.622Z,0.00
2022-08-25T03:04:43.538Z,0.00
2022-08-25T03:05:43.416Z,0.00
2022-08-25T03:06:43.447Z,0.00
2022-08-25T03:07:43.405Z,0.00
2022-08-25T03:08:43.395Z,0.00
2022-08-25T03:09:43.377Z,0.00
2022-08-25T03:10:43.404Z,0.00
2022-08-25T03:11:43.335Z,0.00
2022-08-25T03:12:43.361Z,0.00
2022-08-25T03:13:43.329Z,0.00
2022-08-25T03:14:43.328Z,0.00
2022-08-25T03:15:43.327Z,0.00
2022-08-25T03:16:43.336Z,0.00
2022-08-25T03:17:43.802Z,0.00
2022-08-25T03:18:43.264Z,0.00
2022-08-25T03:19:43.228Z,0.00
2022-08-25T03:20:43.256Z,0.00
2022-08-25T03:21:43.231Z,0.00
2022-08-25T03:22:43.552Z,0.00
2022-08-25T03:23:43.227Z,0.00
2022-08-25T03:24:43.223Z,0.00
2022-08-25T03:25:43.144Z,0.00
2022-08-25T03:26:43.142Z,0.00
2022-08-25T03:27:43.140Z,0.00
2022-08-25T03:28:43.134Z,0.00
2022-08-25T03:29:43.116Z,0.00
2022-08-25T03:30:43.154Z,0.00
2022-08-25T03:31:43.123Z,0.00
2022-08-25T03:32:43.107Z,0.00
2022-08-25T03:33:43.115Z,0.00
2022-08-25T03:34:43.078Z,0.00
2022-08-25T03:35:43.062Z,0.00
2022-08-25T03:36:43.029Z,0.00
2022-08-25T03:37:43.022Z,0.00
2022-08-25T03:38:43.015Z,0.00
2022-08-25T03:39:42.994Z,0.00
2022-08-25T03:40:43.010Z,0.00
2022-08-25T03:41:42.955Z,0.00
2022-08-25T03:42:45.002Z,0.00
2022-08-25T03:43:42.949Z,0.00
2022-08-25T03:44:42.935Z,0.00
2022-08-25T03:45:42.974Z,0.00
2022-08-25T03:46:42.932Z,0.00
2022-08-25T03:47:42.870Z,0.00
2022-08-25T03:48:42.891Z,0.00
2022-08-25T03:49:42.864Z,0.00
2022-08-25T03:50:42.863Z,0.00
2022-08-25T03:51:42.841Z,0.00
2022-08-25T03:52:42.921Z,0.00
2022-08-25T03:53:42.790Z,0.00
2022-08-25T03:54:42.787Z,0.00
2022-08-25T03:55:42.785Z,0.00
2022-08-25T03:56:42.751Z,0.00
2022-08-25T03:57:42.771Z,5.62
2022-08-25T03:58:42.742Z,5.62
2022-08-25T03:59:42.735Z,5.62
2022-08-25T04:00:42.702Z,5.62
2022-08-25T04:01:42.691Z,5.62
2022-08-25T04:02:42.719Z,5.62
2022-08-25T04:03:42.643Z,5.62
2022-08-25T04:04:42.641Z,5.62
2022-08-25T04:05:42.638Z,11.25
2022-08-25T04:06:42.603Z,11.25
2022-08-25T04:07:42.624Z,11.25
2022-08-25T04:08:42.573Z,11.25
2022-08-25T04:09:42.593Z,11.25
2022-08-25T04:10:42.563Z,11.25
2022-08-25T04:11:42.792Z,16.88
2022-08-25T04:12:42.520Z,16.88
2022-08-25T04:13:42.534Z,16.88
2022-08-25T04:14:42.517Z,16.88
2022-08-25T04:15:42.517Z,22.50
2022-08-25T04:16:42.534Z,22.50
2022-08-25T04:17:42.457Z,22.50
2022-08-25T04:18:42.475Z,22.50
2022-08-25T04:19:42.464Z,28.12
2022-08-25T04:20:46.525Z,28.12
2022-08-25T04:21:42.408Z,28.12
2022-08-25T04:22:45.057Z,28.12
2022-08-25T04:23:42.379Z,33.75
2022-08-25T04:24:42.360Z,33.75
2022-08-25T04:25:42.370Z,33.75
2022-08-25T04:26:42.339Z,39.38
2022-08-25T04:27:42.348Z,39.38
2022-08-25T04:28:42.343Z,39.38
2022-08-25T04:29:42.297Z,39.38
2022-08-25T04:30:42.306Z,45.00
2022-08-25T04:31:42.350Z,45.00
2022-08-25T04:32:42.290Z,45.00
2022-08-25T04:33:42.245Z,50.62
2022-08-25T04:34:42.227Z,50.62
2022-08-25T04:35:42.240Z,50.62
2022-08-25T04:36:42.215Z,56.25
2022-08-25T04:37:42.199Z,56.25
2022-08-25T04:38:42.209Z,56.25
2022-08-25T04:39:42.206Z,61.88
2022-08-25T04:40:42.176Z,61.88
2022-08-25T04:41:42.186Z,61.88
2022-08-25T04:42:42.137Z,67.50
2022-08-25T04:43:42.150Z,67.50
2022-08-25T04:44:42.127Z,67.50
2022-08-25T04:45:42.137Z,73.12
2022-08-25T04:46:42.107Z,73.12
2022-08-25T04:47:42.100Z,73.12
2022-08-25T04:48:42.075Z,78.75
2022-08-25T04:49:42.078Z,78.75
2022-08-25T04:50:42.018Z,78.75
2022-08-25T04:51:42.007Z,84.38
2022-08-25T04:52:42.017Z,84.38
2022-08-25T04:53:41.996Z,84.38
2022-08-25T04:54:42.021Z,90.00
2022-08-25T04:55:41.952Z,90.00
2022-08-25T04:56:41.930Z,95.62
2022-08-25T04:57:41.938Z,95.62
2022-08-25T04:58:41.916Z,95.62
2022-08-25T04:59:41.901Z,101.25
2022-08-25T05:00:41.954Z,101.25
2022-08-25T05:01:41.917Z,101.25
2022-08-25T05:02:41.866Z,106.88
2022-08-25T05:03:41.862Z,106.88
2022-08-25T05:04:41.893Z,106.88
2022-08-25T05:05:41.816Z,106.88
2022-08-25T05:06:41.847Z,112.50
2022-08-25T05:07:41.807Z,112.50
2022-08-25T05:08:41.768Z,118.12
2022-08-25T05:09:41.792Z,118.12
2022-08-25T05:10:43.394Z,118.12
2022-08-25T05:11:41.758Z,123.75
2022-08-25T05:12:41.725Z,123.75
2022-08-25T05:13:41.717Z,129.38
2022-08-25T05:14:41.743Z,129.38
2022-08-25T05:15:41.704Z,129.38
2022-08-25T05:16:41.726Z,135.00
2022-08-25T05:17:41.683Z,140.62
2022-08-25T05:18:41.654Z,140.62
2022-08-25T05:19:41.630Z,140.62
2022-08-25T05:20:41.668Z,146.25
2022-08-25T05:21:41.621Z,151.88
2022-08-25T05:22:41.690Z,151.88
2022-08-25T05:23:41.602Z,174.38
2022-08-25T05:24:41.566Z,180.00
2022-08-25T05:25:41.596Z,168.75
2022-08-25T05:26:41.553Z,180.00
2022-08-25T05:27:41.552Z,191.25
2022-08-25T05:28:41.515Z,185.62
2022-08-25T05:29:41.512Z,196.88
2022-08-25T05:30:41.485Z,196.88
2022-08-25T05:31:44.923Z,208.12
2022-08-25T05:32:41.476Z,191.25
2022-08-25T05:33:41.459Z,208.12
2022-08-25T05:34:41.459Z,196.88
2022-08-25T05:35:41.429Z,208.12
2022-08-25T05:36:41.434Z,191.25
2022-08-25T05:37:41.404Z,202.50
2022-08-25T05:38:41.367Z,208.12
2022-08-25T05:39:41.371Z,213.75
2022-08-25T05:40:41.353Z,208.12
2022-08-25T05:41:41.349Z,213.75
2022-08-25T05:42:41.343Z,236.25
2022-08-25T05:43:41.323Z,236.25
2022-08-25T05:44:41.302Z,236.25
2022-08-25T05:45:41.350Z,230.62
2022-08-25T05:46:41.284Z,241.88
2022-08-25T05:47:41.276Z,241.88
2022-08-25T05:48:41.250Z,241.88
2022-08-25T05:49:41.232Z,247.50
2022-08-25T05:50:41.227Z,236.25
2022-08-25T05:51:41.229Z,241.88
2022-08-25T05:52:41.208Z,230.62
2022-08-25T05:53:41.192Z,264.38
2022-08-25T05:54:41.150Z,258.75
2022-08-25T05:55:41.173Z,253.12
2022-08-25T05:56:41.129Z,253.12
2022-08-25T05:57:41.116Z,247.50
2022-08-25T05:58:41.116Z,247.50
2022-08-25T05:59:41.110Z,225.00
2022-08-25T06:00:41.146Z,253.12
2022-08-25T06:01:41.086Z,258.75
2022-08-25T06:02:41.086Z,253.12
2022-08-25T06:03:41.089Z,264.38
2022-08-25T06:04:41.447Z,258.75
2022-08-25T06:05:41.018Z,281.25
2022-08-25T06:06:41.026Z,270.00
2022-08-25T06:07:40.985Z,264.38
2022-08-25T06:08:40.968Z,275.62
2022-08-25T06:09:40.978Z,264.38
2022-08-25T06:10:40.967Z,258.75
2022-08-25T06:11:40.950Z,275.62
2022-08-25T06:12:40.913Z,281.25
2022-08-25T06:13:40.929Z,286.88
2022-08-25T06:14:40.915Z,264.38
2022-08-25T06:15:40.910Z,258.75
2022-08-25T06:16:40.941Z,264.38
2022-08-25T06:17:40.871Z,264.38
2022-08-25T06:18:40.891Z,264.38
2022-08-25T06:19:41.350Z,258.75
2022-08-25T06:20:40.815Z,264.38
2022-08-25T06:21:40.834Z,264.38
2022-08-25T06:22:40.810Z,253.12
2022-08-25T06:23:40.794Z,298.12
2022-08-25T06:24:40.770Z,286.88
2022-08-25T06:25:40.751Z,264.38
2022-08-25T06:26:40.741Z,258.75
2022-08-25T06:27:40.736Z,275.62
2022-08-25T06:28:40.820Z,275.62
2022-08-25T06:29:40.709Z,264.38
2022-08-25T06:30:40.688Z,275.62
2022-08-25T06:31:40.736Z,258.75
2022-08-25T06:32:40.675Z,258.75
2022-08-25T06:33:40.675Z,275.62
2022-08-25T06:34:40.639Z,275.62
2022-08-25T06:35:40.648Z,286.88
2022-08-25T06:36:40.614Z,286.88
2022-08-25T06:37:40.602Z,281.25
2022-08-25T06:38:40.584Z,281.25
2022-08-25T06:39:40.579Z,281.25
2022-08-25T06:40:40.556Z,286.88
2022-08-25T06:41:40.532Z,292.50
2022-08-25T06:42:40.540Z,264.38
2022-08-25T06:43:44.967Z,270.00
2022-08-25T06:44:40.531Z,275.62
2022-08-25T06:45:40.498Z,264.38
2022-08-25T06:46:40.490Z,264.38
2022-08-25T06:47:40.469Z,264.38
2022-08-25T06:48:40.436Z,275.62
2022-08-25T06:49:40.425Z,286.88
2022-08-25T06:50:40.448Z,292.50
2022-08-25T06:51:40.429Z,303.75
2022-08-25T06:52:40.397Z,309.38
2022-08-25T06:53:40.390Z,298.12
2022-08-25T06:54:40.368Z,303.75
2022-08-25T06:55:40.345Z,315.00
2022-08-25T06:56:40.362Z,326.25
2022-08-25T06:57:40.347Z,331.88
2022-08-25T06:58:40.385Z,320.62
2022-08-25T06:59:41.595Z,326.25
2022-08-25T07:00:40.297Z,337.50
2022-08-25T07:01:40.421Z,331.88
2022-08-25T07:02:40.340Z,348.75
2022-08-25T07:03:40.258Z,371.25
2022-08-25T07:04:40.231Z,376.88
2022-08-25T07:05:43.945Z,371.25
2022-08-25T07:06:40.224Z,371.25
2022-08-25T07:07:43.686Z,348.75
2022-08-25T07:08:40.172Z,348.75
2022-08-25T07:09:40.182Z,371.25
2022-08-25T07:10:40.158Z,354.38
2022-08-25T07:11:40.174Z,365.62
2022-08-25T07:12:40.124Z,360.00
2022-08-25T07:13:40.123Z,348.75
2022-08-25T07:14:40.086Z,337.50
2022-08-25T07:15:40.114Z,343.12
2022-08-25T07:16:40.144Z,354.38
2022-08-25T07:17:40.103Z,343.12
2022-08-25T07:18:40.049Z,360.00
2022-08-25T07:19:41.012Z,360.00
2022-08-25T07:20:40.027Z,371.25
2022-08-25T07:21:40.016Z,354.38
2022-08-25T07:22:39.998Z,360.00
2022-08-25T07:23:39.991Z,371.25
2022-08-25T07:24:39.970Z,365.62
2022-08-25T07:25:39.961Z,365.62
2022-08-25T07:26:39.967Z,376.88
2022-08-25T07:27:42.270Z,365.62
2022-08-25T07:28:39.911Z,354.38
2022-08-25T07:29:42.616Z,337.50
2022-08-25T07:30:39.871Z,348.75
2022-08-25T07:31:39.997Z,376.88
2022-08-25T07:32:41.966Z,382.50
2022-08-25T07:33:39.841Z,393.75
2022-08-25T07:34:39.817Z,405.00
2022-08-25T07:35:39.815Z,405.00
2022-08-25T07:36:39.815Z,416.25
2022-08-25T07:37:48.884Z,416.25
2022-08-25T07:38:39.787Z,416.25
2022-08-25T07:39:39.783Z,416.25
2022-08-25T07:40:42.671Z,427.50
2022-08-25T07:41:39.737Z,433.12
2022-08-25T07:42:39.757Z,421.88
2022-08-25T07:43:39.729Z,421.88
2022-08-25T07:44:39.713Z,433.12
2022-08-25T07:45:46.894Z,438.75
2022-08-25T07:46:39.748Z,433.12
2022-08-25T07:47:39.703Z,421.88
2022-08-25T07:48:39.679Z,410.62
2022-08-25T07:49:39.909Z,410.62
2022-08-25T07:50:39.602Z,421.88
2022-08-25T07:51:39.647Z,433.12
2022-08-25T07:52:39.652Z,433.12
2022-08-25T07:53:39.616Z,405.00
2022-08-25T07:54:39.618Z,376.88
2022-08-25T07:55:39.575Z,371.25
2022-08-25T07:56:39.572Z,376.88
2022-08-25T07:57:39.539Z,376.88
2022-08-25T07:58:39.556Z,382.50
2022-08-25T07:59:40.348Z,388.12
2022-08-25T08:00:39.482Z,399.38
2022-08-25T08:01:39.509Z,410.62
2022-08-25T08:02:39.466Z,421.88
2022-08-25T08:03:50.524Z,421.88
2022-08-25T08:04:39.428Z,433.12
2022-08-25T08:05:39.462Z,455.62
2022-08-25T08:06:39.402Z,444.38
2022-08-25T08:07:42.168Z,427.50
2022-08-25T08:08:39.417Z,427.50
2022-08-25T08:09:39.380Z,433.12
2022-08-25T08:11:02.912Z,438.75
2022-08-25T08:11:42.546Z,455.62
2022-08-25T08:12:39.327Z,466.88
2022-08-25T08:13:41.457Z,461.25
2022-08-25T08:14:44.838Z,483.75
2022-08-25T08:15:39.272Z,511.88
2022-08-25T08:16:39.342Z,528.75
2022-08-25T08:17:39.257Z,551.25
2022-08-25T08:18:39.227Z,534.38
2022-08-25T08:19:43.103Z,495.00
2022-08-25T08:20:42.672Z,500.62
2022-08-25T08:21:39.235Z,528.75
2022-08-25T08:22:39.177Z,624.38
2022-08-25T08:23:39.194Z,669.38
2022-08-25T08:24:44.630Z,663.75
2022-08-25T08:25:39.178Z,596.25
2022-08-25T08:26:57.837Z,568.12
2022-08-25T08:27:39.147Z,545.62
2022-08-25T08:28:39.117Z,568.12
2022-08-25T08:29:39.097Z,635.62
2022-08-25T08:30:39.130Z,748.12
2022-08-25T08:31:39.147Z,765.00
2022-08-25T08:33:08.243Z,731.25
2022-08-25T08:33:40.717Z,753.75
2022-08-25T08:34:39.069Z,686.25
2022-08-25T08:35:39.045Z,646.88
2022-08-25T08:36:39.008Z,675.00
2022-08-25T08:37:38.997Z,765.00
2022-08-25T08:38:39.020Z,781.88
2022-08-25T08:39:39.020Z,849.38
2022-08-25T08:40:38.942Z,978.75
2022-08-25T08:42:07.308Z,1141.88
2022-08-25T08:42:38.945Z,1130.62
2022-08-25T08:43:39.458Z,956.25
2022-08-25T08:44:38.902Z,798.75
2022-08-25T08:45:40.536Z,759.38
2022-08-25T08:46:38.975Z,759.38
2022-08-25T08:47:38.855Z,725.62
2022-08-25T08:48:38.831Z,748.12
2022-08-25T08:49:38.816Z,736.88
2022-08-25T08:50:38.804Z,731.25
2022-08-25T08:51:38.815Z,967.50
2022-08-25T08:52:38.793Z,731.25
2022-08-25T08:53:38.780Z,905.62
2022-08-25T08:54:38.769Z,1884.38
2022-08-25T08:55:38.763Z,1203.75
2022-08-25T08:56:38.747Z,2913.75
2022-08-25T08:57:38.791Z,1136.25
2022-08-25T08:58:38.717Z,1912.50
2022-08-25T08:59:38.709Z,1215.00
2022-08-25T09:00:38.688Z,1057.50
2022-08-25T09:01:38.726Z,1130.62
2022-08-25T09:02:51.476Z,1220.62
2022-08-25T09:03:39.705Z,1074.38
2022-08-25T09:04:38.631Z,1119.38
2022-08-25T09:05:43.819Z,1198.12
2022-08-25T09:06:38.602Z,1063.12
2022-08-25T09:07:38.609Z,1501.88
2022-08-25T09:08:38.569Z,1209.38
2022-08-25T09:09:38.583Z,1569.38
2022-08-25T09:10:38.546Z,1164.38
2022-08-25T09:11:38.559Z,1338.75
2022-08-25T09:12:38.573Z,1732.50
2022-08-25T09:13:38.518Z,1929.38
2022-08-25T09:14:38.523Z,2401.88
2022-08-25T09:15:41.250Z,1265.62
2022-08-25T09:16:38.510Z,1395.00
2022-08-25T09:17:38.457Z,1411.88
2022-08-25T09:18:41.249Z,1631.25
2022-08-25T09:19:41.792Z,1209.38
2022-08-25T09:20:38.413Z,1440.00
2022-08-25T09:21:38.410Z,1406.25
2022-08-25T09:22:38.445Z,1226.25
2022-08-25T09:23:38.370Z,2761.88
2022-08-25T09:24:38.407Z,1968.75
2022-08-25T09:25:54.339Z,3009.38
2022-08-25T09:26:38.369Z,2722.50
2022-08-25T09:27:38.322Z,1440.00
2022-08-25T09:28:38.319Z,1940.62
2022-08-25T09:29:38.309Z,2981.25
2022-08-25T09:30:38.303Z,2773.12
2022-08-25T09:31:38.342Z,3065.62
2022-08-25T09:32:38.260Z,1873.12
2022-08-25T09:33:38.242Z,2851.88
2022-08-25T09:34:38.255Z,3217.50
2022-08-25T09:35:38.234Z,3155.62
2022-08-25T09:36:38.226Z,2435.62
2022-08-25T09:37:38.224Z,1445.62
2022-08-25T09:38:38.410Z,1164.38
2022-08-25T09:39:38.167Z,2165.62
2022-08-25T09:40:38.160Z,3189.38
2022-08-25T09:41:38.178Z,3358.12
2022-08-25T09:42:38.153Z,3290.62
2022-08-25T09:43:38.169Z,3375.00
2022-08-25T09:44:38.133Z,3313.12
2022-08-25T09:45:38.112Z,3313.12
2022-08-25T09:46:38.129Z,3301.88
2022-08-25T09:47:38.087Z,3217.50
2022-08-25T09:48:40.700Z,3161.25
2022-08-25T09:49:38.074Z,3470.62
2022-08-25T09:50:38.068Z,3414.38
2022-08-25T09:51:42.871Z,2497.50
2022-08-25T09:52:38.023Z,2098.12
2022-08-25T09:53:38.011Z,3195.00
2022-08-25T09:54:44.035Z,3324.38
2022-08-25T09:55:37.980Z,3346.88
2022-08-25T09:56:37.989Z,3245.62
2022-08-25T09:57:37.947Z,3245.62
2022-08-25T09:58:37.976Z,3307.50
2022-08-25T09:59:37.950Z,3256.88
2022-08-25T10:00:37.932Z,3166.88
2022-08-25T10:01:37.941Z,3279.38
2022-08-25T10:02:37.898Z,3324.38
2022-08-25T10:03:37.932Z,3408.75
2022-08-25T10:04:37.898Z,3296.25
2022-08-25T10:05:37.883Z,3268.12
2022-08-25T10:06:37.852Z,3346.88
2022-08-25T10:07:37.840Z,950.62
2022-08-25T10:08:37.821Z,3217.50
2022-08-25T10:09:37.829Z,3301.88
2022-08-25T10:10:37.826Z,3425.62
2022-08-25T10:11:37.808Z,3425.62
2022-08-25T10:12:37.773Z,3217.50
2022-08-25T10:13:37.784Z,1788.75
2022-08-25T10:14:37.776Z,1203.75
2022-08-25T10:15:37.822Z,2188.12
2022-08-25T10:16:37.837Z,3650.62
2022-08-25T10:17:37.710Z,3414.38
2022-08-25T10:18:37.729Z,3628.12
2022-08-25T10:19:37.700Z,3667.50
2022-08-25T10:20:37.717Z,3588.75
2022-08-25T10:21:37.710Z,2446.88
2022-08-25T10:22:37.716Z,1153.12
2022-08-25T10:23:37.646Z,3577.50
2022-08-25T10:24:37.635Z,1591.88
2022-08-25T10:25:37.616Z,3003.75
2022-08-25T10:26:37.670Z,1383.75
2022-08-25T10:27:37.608Z,1788.75
2022-08-25T10:28:37.600Z,2784.38
2022-08-25T10:29:37.605Z,3633.75
2022-08-25T10:30:37.596Z,3628.12
2022-08-25T10:31:37.557Z,3571.88
2022-08-25T10:32:37.557Z,3515.62
2022-08-25T10:33:37.558Z,1440.00
2022-08-25T10:34:37.539Z,1732.50
2022-08-25T10:35:37.496Z,3718.12
2022-08-25T10:36:37.503Z,3763.12
2022-08-25T10:37:37.488Z,3667.50
2022-08-25T10:38:37.479Z,2356.88
2022-08-25T10:39:40.664Z,3217.50
2022-08-25T10:40:37.503Z,3757.50
2022-08-25T10:41:37.420Z,2913.75
2022-08-25T10:42:37.431Z,3751.88
2022-08-25T10:43:37.400Z,3853.12
2022-08-25T10:44:37.408Z,3718.12
2022-08-25T10:45:37.390Z,3633.75
2022-08-25T10:46:37.412Z,3594.38
2022-08-25T10:47:37.357Z,3639.38
2022-08-25T10:48:37.343Z,3605.62
2022-08-25T10:49:37.361Z,3639.38
2022-08-25T10:50:37.345Z,3628.12
2022-08-25T10:51:37.542Z,3616.88
2022-08-25T10:52:37.336Z,3661.88
2022-08-25T10:53:37.301Z,3673.12
2022-08-25T10:54:37.314Z,3594.38
2022-08-25T10:55:40.347Z,3532.50
2022-08-25T10:56:40.269Z,3583.12
2022-08-25T10:57:37.419Z,3583.12
2022-08-25T10:58:37.251Z,3543.75
2022-08-25T10:59:37.256Z,3577.50
2022-08-25T11:00:37.226Z,3600.00
2022-08-25T11:01:43.687Z,3661.88
2022-08-25T11:02:37.192Z,3774.38
2022-08-25T11:03:37.193Z,3718.12
2022-08-25T11:04:37.211Z,3611.25
2022-08-25T11:05:37.263Z,3622.50
2022-08-25T11:06:37.185Z,3706.88
2022-08-25T11:07:37.144Z,3538.12
2022-08-25T11:08:37.148Z,3420.00
2022-08-25T11:09:37.129Z,3616.88
2022-08-25T11:10:37.142Z,3318.75
2022-08-25T11:11:37.125Z,1411.88
2022-08-25T11:12:37.113Z,3763.12
2022-08-25T11:13:37.077Z,1856.25
2022-08-25T11:14:37.067Z,978.75
2022-08-25T11:15:37.031Z,3251.25
2022-08-25T11:16:37.249Z,3515.62
2022-08-25T11:17:37.036Z,3532.50
2022-08-25T11:18:37.006Z,2385.00
2022-08-25T11:19:37.001Z,3858.75
2022-08-25T11:20:36.993Z,3166.88
2022-08-25T11:21:36.968Z,1091.25
2022-08-25T11:22:36.990Z,1046.25
2022-08-25T11:23:36.937Z,3335.62
2022-08-25T11:24:37.570Z,3791.25
2022-08-25T11:25:36.959Z,3819.38
2022-08-25T11:26:37.450Z,3757.50
2022-08-25T11:27:36.924Z,2773.12
2022-08-25T11:28:36.904Z,3571.88
2022-08-25T11:29:36.868Z,2941.88
2022-08-25T11:30:36.925Z,3701.25
2022-08-25T11:31:36.864Z,3650.62
2022-08-25T11:32:36.840Z,3830.62
2022-08-25T11:33:36.848Z,3622.50
2022-08-25T11:34:36.831Z,3774.38
2022-08-25T11:35:36.844Z,2345.62
2022-08-25T11:36:36.914Z,1608.75
2022-08-25T11:37:36.791Z,1468.12
2022-08-25T11:38:36.764Z,1198.12
2022-08-25T11:39:36.766Z,3881.25
2022-08-25T11:40:36.767Z,1378.12
2022-08-25T11:41:36.850Z,1293.75
2022-08-25T11:42:36.719Z,1215.00
2022-08-25T11:43:36.696Z,3841.88
2022-08-25T11:44:36.706Z,3870.00
2022-08-25T11:45:36.698Z,3808.12
2022-08-25T11:46:36.695Z,3583.12
2022-08-25T11:47:36.670Z,1608.75
2022-08-25T11:48:36.657Z,1951.88
2022-08-25T11:49:36.625Z,1186.88
2022-08-25T11:50:36.636Z,3841.88
2022-08-25T11:51:36.724Z,3830.62
2022-08-25T11:52:36.617Z,3886.88
2022-08-25T11:53:37.578Z,3802.50
2022-08-25T11:54:36.630Z,3729.38
2022-08-25T11:55:36.577Z,3465.00
2022-08-25T11:56:36.575Z,3526.88
2022-08-25T11:57:36.580Z,3465.00
2022-08-25T11:58:36.544Z,3616.88
2022-08-25T11:59:36.515Z,3791.25
2022-08-25T12:00:36.527Z,3853.12
2022-08-25T12:01:36.517Z,3971.25
2022-08-25T12:02:36.510Z,3858.75
2022-08-25T12:03:36.482Z,3853.12
2022-08-25T12:04:44.048Z,3870.00
2022-08-25T12:05:36.536Z,3780.00
2022-08-25T12:06:36.471Z,3684.38
2022-08-25T12:07:36.466Z,3690.00
2022-08-25T12:08:36.445Z,3673.12
2022-08-25T12:09:36.426Z,1473.75
2022-08-25T12:10:36.417Z,911.25
2022-08-25T12:11:36.395Z,821.25
2022-08-25T12:12:36.403Z,776.25
2022-08-25T12:13:36.383Z,826.88
2022-08-25T12:14:36.354Z,3836.25
2022-08-25T12:15:36.330Z,3898.12
2022-08-25T12:16:36.413Z,3903.75
2022-08-25T12:17:36.311Z,3915.00
2022-08-25T12:18:36.305Z,3785.62
2022-08-25T12:19:36.313Z,3549.38
2022-08-25T12:20:36.317Z,3571.88
2022-08-25T12:21:36.275Z,3583.12
2022-08-25T12:22:36.248Z,3521.25
2022-08-25T12:23:36.256Z,3538.12
2022-08-25T12:24:36.266Z,3369.38
2022-08-25T12:25:36.226Z,3616.88
2022-08-25T12:26:36.218Z,3583.12
2022-08-25T12:27:36.215Z,3448.12
2022-08-25T12:28:36.200Z,3459.38
2022-08-25T12:29:36.208Z,3493.12
2022-08-25T12:30:36.709Z,3515.62
2022-08-25T12:31:36.175Z,3476.25
2022-08-25T12:32:36.183Z,3465.00
2022-08-25T12:33:36.152Z,3521.25
2022-08-25T12:34:36.117Z,3560.62
2022-08-25T12:35:36.102Z,3538.12
2022-08-25T12:36:36.093Z,3560.62
2022-08-25T12:37:36.092Z,3600.00
2022-08-25T12:38:39.840Z,3600.00